Time,TemperatureF,DewpointF,PressureIn,WindDirection,WindDirectionDegrees,WindSpeedMPH,WindSpeedGustMPH,Humidity,HourlyPrecipIn,Conditions,Clouds,dailyrainin,SoftwareType,DateUTC
2013-04-30 00:13:00,60.3,55.0,29.68,SW,236,4.0,-999.0,82,-99.99,,,0.00,weatherlink.com 1.10,2013-04-30 05:13:00,
2013-04-30 00:28:00,60.5,55.0,29.67,SSW,200,1.0,-999.0,82,-99.99,,,0.00,weatherlink.com 1.10,2013-04-30 05:28:00,
2013-04-30 00:43:00,60.6,55.0,29.67,SSW,202,2.0,-999.0,83,-99.99,,,0.00,weatherlink.com 1.10,2013-04-30 05:43:00,
2013-04-30 00:58:00,60.3,56.0,29.66,South,171,1.0,-999.0,84,-99.99,,,0.00,weatherlink.com 1.10,2013-04-30 05:58:00,
2013-04-30 01:13:00,60.0,56.0,29.66,South,182,3.0,-999.0,85,-99.99,,,0.00,weatherlink.com 1.10,2013-04-30 06:13:00,
2013-04-30 01:28:00,60.0,56.0,29.66,South,175,0.0,-999.0,86,-99.99,,,0.00,weatherlink.com 1.10,2013-04-30 06:28:00,
2013-04-30 01:43:00,59.9,56.0,29.65,SSW,198,0.0,-999.0,86,-99.99,,,0.00,weatherlink.com 1.10,2013-04-30 06:43:00,
2013-04-30 01:58:00,60.1,56.0,29.64,SW,227,0.0,-999.0,86,-99.99,,,0.00,weatherlink.com 1.10,2013-04-30 06:58:00,
2013-04-30 02:13:00,60.3,56.0,29.64,South,190,0.0,-999.0,86,-99.99,,,0.00,weatherlink.com 1.10,2013-04-30 07:13:00,
2013-04-30 02:28:00,60.2,56.0,29.64,South,187,5.0,-999.0,86,-99.99,,,0.00,weatherlink.com 1.10,2013-04-30 07:28:00,
2013-04-30 02:43:00,60.3,56.0,29.64,SSW,196,4.0,-999.0,86,-99.99,,,0.00,weatherlink.com 1.10,2013-04-30 07:43:00,
2013-04-30 02:58:00,60.3,56.0,29.65,SW,236,8.0,-999.0,86,-99.99,,,0.00,weatherlink.com 1.10,2013-04-30 07:58:00,
2013-04-30 03:13:00,60.3,56.0,29.63,South,178,5.0,-999.0,86,-99.99,,,0.00,weatherlink.com 1.10,2013-04-30 08:13:00,
2013-04-30 03:28:00,60.3,56.0,29.64,SSW,212,6.0,-999.0,86,-99.99,,,0.00,weatherlink.com 1.10,2013-04-30 08:28:00,
2013-04-30 03:43:00,60.6,57.0,29.70,WSW,239,8.0,-999.0,87,-99.99,,,0.00,weatherlink.com 1.10,2013-04-30 08:43:00,
2013-04-30 03:58:00,61.0,57.0,29.68,West,261,20.0,-999.0,86,-99.99,,,0.00,weatherlink.com 1.10,2013-04-30 08:58:00,
2013-04-30 04:13:00,59.4,56.0,29.68,WSW,249,10.0,-999.0,89,-99.99,,,0.00,weatherlink.com 1.10,2013-04-30 09:13:00,
2013-04-30 04:28:00,59.9,57.0,29.67,SW,223,11.0,-999.0,90,-99.99,,,0.00,weatherlink.com 1.10,2013-04-30 09:28:00,
2013-04-30 04:43:00,61.8,58.0,29.64,SW,232,26.0,-999.0,86,-99.99,,,0.00,weatherlink.com 1.10,2013-04-30 09:43:00,
2013-04-30 04:59:00,61.6,57.0,29.63,SSW,212,15.0,-999.0,86,-99.99,,,0.00,weatherlink.com 1.10,2013-04-30 09:59:00,
2013-04-30 05:14:00,60.1,58.0,29.61,South,170,10.0,-999.0,91,-99.99,,,0.00,weatherlink.com 1.10,2013-04-30 10:14:00,
2013-04-30 05:29:00,61.1,58.0,29.64,SW,234,12.0,-999.0,88,-99.99,,,0.00,weatherlink.com 1.10,2013-04-30 10:29:00,
2013-04-30 05:44:00,61.8,57.0,29.65,SW,217,14.0,-999.0,85,-99.99,,,0.00,weatherlink.com 1.10,2013-04-30 10:44:00,
2013-04-30 05:59:00,61.9,57.0,29.65,SW,228,15.0,-999.0,84,-99.99,,,0.00,weatherlink.com 1.10,2013-04-30 10:59:00,
2013-04-30 06:14:00,62.6,57.0,29.65,SSE,155,9.0,-999.0,81,-99.99,,,0.00,weatherlink.com 1.10,2013-04-30 11:14:00,
2013-04-30 06:29:00,62.6,56.0,29.66,WSW,246,8.0,-999.0,80,-99.99,,,0.00,weatherlink.com 1.10,2013-04-30 11:29:00,
2013-04-30 06:44:00,59.9,56.0,29.66,SW,216,6.0,-999.0,88,-99.99,,,0.00,weatherlink.com 1.10,2013-04-30 11:44:00,
2013-04-30 06:59:00,59.8,56.0,29.63,South,180,0.0,-999.0,88,-99.99,,,0.00,weatherlink.com 1.10,2013-04-30 11:59:00,
2013-04-30 07:14:00,60.5,56.0,29.65,South,178,0.0,-999.0,86,-99.99,,,0.00,weatherlink.com 1.10,2013-04-30 12:14:00,
2013-04-30 07:29:00,60.0,57.0,29.66,West,279,4.0,-999.0,88,-99.99,,,0.00,weatherlink.com 1.10,2013-04-30 12:29:00,
2013-04-30 07:44:00,61.3,57.0,29.66,SSW,206,3.0,-999.0,84,-99.99,,,0.00,weatherlink.com 1.10,2013-04-30 12:44:00,
2013-04-30 07:59:00,61.4,57.0,29.66,SW,223,5.0,-999.0,84,-99.99,,,0.00,weatherlink.com 1.10,2013-04-30 12:59:00,
2013-04-30 08:14:00,61.7,57.0,29.66,SW,225,5.0,-999.0,84,-99.99,,,0.00,weatherlink.com 1.10,2013-04-30 13:14:00,
2013-04-30 08:29:00,62.5,58.0,29.65,SSW,209,8.0,-999.0,84,-99.99,,,0.00,weatherlink.com 1.10,2013-04-30 13:29:00,
2013-04-30 08:44:00,63.5,59.0,29.64,SW,227,6.0,-999.0,84,-99.99,,,0.00,weatherlink.com 1.10,2013-04-30 13:44:00,
2013-04-30 08:59:00,64.0,59.0,29.64,SW,222,7.0,-999.0,84,-99.99,,,0.00,weatherlink.com 1.10,2013-04-30 13:59:00,
2013-04-30 09:14:00,65.0,59.0,29.64,SW,217,11.0,-999.0,82,-99.99,,,0.00,weatherlink.com 1.10,2013-04-30 14:14:00,
2013-04-30 09:29:00,66.1,61.0,29.63,SSW,212,6.0,-999.0,82,-99.99,,,0.00,weatherlink.com 1.10,2013-04-30 14:29:00,
2013-04-30 09:44:00,67.9,61.0,29.63,SW,217,7.0,-999.0,79,-99.99,,,0.00,weatherlink.com 1.10,2013-04-30 14:44:00,
2013-04-30 09:59:00,69.5,61.0,29.64,WSW,240,5.0,-999.0,74,-99.99,,,0.00,weatherlink.com 1.10,2013-04-30 14:59:00,
2013-04-30 10:14:00,70.2,61.0,29.64,SW,217,10.0,-999.0,72,-99.99,,,0.00,weatherlink.com 1.10,2013-04-30 15:14:00,
2013-04-30 10:29:00,71.2,60.0,29.63,SW,222,11.0,-999.0,68,-99.99,,,0.00,weatherlink.com 1.10,2013-04-30 15:29:00,
2013-04-30 10:44:00,72.3,60.0,29.64,South,183,5.0,-999.0,66,-99.99,,,0.00,weatherlink.com 1.10,2013-04-30 15:44:00,
2013-04-30 10:59:00,73.9,60.0,29.64,SSW,213,3.0,-999.0,63,-99.99,,,0.00,weatherlink.com 1.10,2013-04-30 15:59:00,
2013-04-30 11:14:00,75.7,59.0,29.63,SW,234,9.0,-999.0,56,-99.99,,,0.00,weatherlink.com 1.10,2013-04-30 16:14:00,
2013-04-30 11:29:00,77.0,58.0,29.63,WSW,257,14.0,-999.0,52,-99.99,,,0.00,weatherlink.com 1.10,2013-04-30 16:29:00,
2013-04-30 11:44:00,77.4,58.0,29.63,West,267,10.0,-999.0,51,-99.99,,,0.00,weatherlink.com 1.10,2013-04-30 16:44:00,
2013-04-30 11:59:00,77.8,58.0,29.63,SW,223,17.0,-999.0,51,-99.99,,,0.00,weatherlink.com 1.10,2013-04-30 16:59:00,
2013-04-30 12:15:00,78.5,57.0,29.62,WSW,240,18.0,-999.0,48,-99.99,,,0.00,weatherlink.com 1.10,2013-04-30 17:15:00,
2013-04-30 12:30:00,79.1,57.0,29.63,WSW,253,14.0,-999.0,47,-99.99,,,0.00,weatherlink.com 1.10,2013-04-30 17:30:00,
2013-04-30 12:45:00,80.1,57.0,29.62,WSW,238,10.0,-999.0,46,-99.99,,,0.00,weatherlink.com 1.10,2013-04-30 17:45:00,
2013-04-30 13:00:00,81.1,56.0,29.63,SW,220,12.0,-999.0,42,-99.99,,,0.00,weatherlink.com 1.10,2013-04-30 18:00:00,
2013-04-30 13:15:00,81.1,55.0,29.63,WSW,244,14.0,-999.0,41,-99.99,,,0.00,weatherlink.com 1.10,2013-04-30 18:15:00,
2013-04-30 13:30:00,81.0,54.0,29.63,West,267,16.0,-999.0,40,-99.99,,,0.00,weatherlink.com 1.10,2013-04-30 18:30:00,
2013-04-30 13:45:00,81.8,54.0,29.63,WSW,249,14.0,-999.0,39,-99.99,,,0.00,weatherlink.com 1.10,2013-04-30 18:45:00,
2013-04-30 14:00:00,82.3,54.0,29.63,WSW,244,21.0,-999.0,38,-99.99,,,0.00,weatherlink.com 1.10,2013-04-30 19:00:00,
2013-04-30 14:15:00,82.4,54.0,29.64,WSW,258,24.0,-999.0,37,-99.99,,,0.00,weatherlink.com 1.10,2013-04-30 19:15:00,
2013-04-30 14:30:00,83.2,54.0,29.64,WSW,238,12.0,-999.0,37,-99.99,,,0.00,weatherlink.com 1.10,2013-04-30 19:30:00,
2013-04-30 14:45:00,83.3,55.0,29.64,WSW,248,11.0,-999.0,38,-99.99,,,0.00,weatherlink.com 1.10,2013-04-30 19:45:00,
2013-04-30 15:00:00,84.9,54.0,29.64,West,272,11.0,-999.0,35,-99.99,,,0.00,weatherlink.com 1.10,2013-04-30 20:00:00,
2013-04-30 15:15:00,85.6,53.0,29.64,SW,220,11.0,-999.0,32,-99.99,,,0.00,weatherlink.com 1.10,2013-04-30 20:15:00,
2013-04-30 15:30:00,85.4,52.0,29.64,WSW,257,11.0,-999.0,32,-99.99,,,0.00,weatherlink.com 1.10,2013-04-30 20:30:00,
2013-04-30 15:45:00,84.6,52.0,29.64,West,271,14.0,-999.0,33,-99.99,,,0.00,weatherlink.com 1.10,2013-04-30 20:45:00,
2013-04-30 16:00:00,85.2,53.0,29.65,WSW,249,13.0,-999.0,33,-99.99,,,0.00,weatherlink.com 1.10,2013-04-30 21:00:00,
2013-04-30 16:15:00,85.2,53.0,29.65,WSW,248,12.0,-999.0,33,-99.99,,,0.00,weatherlink.com 1.10,2013-04-30 21:15:00,
2013-04-30 16:30:00,84.7,53.0,29.66,West,260,20.0,-999.0,33,-99.99,,,0.00,weatherlink.com 1.10,2013-04-30 21:30:00,
2013-04-30 16:45:00,84.2,52.0,29.66,West,267,19.0,-999.0,33,-99.99,,,0.00,weatherlink.com 1.10,2013-04-30 21:45:00,
2013-04-30 17:00:00,85.2,53.0,29.66,WSW,249,10.0,-999.0,33,-99.99,,,0.00,weatherlink.com 1.10,2013-04-30 22:00:00,
2013-04-30 17:15:00,84.8,53.0,29.66,WSW,243,21.0,-999.0,33,-99.99,,,0.00,weatherlink.com 1.10,2013-04-30 22:15:00,
2013-04-30 17:30:00,84.6,53.0,29.68,WSW,243,10.0,-999.0,34,-99.99,,,0.00,weatherlink.com 1.10,2013-04-30 22:30:00,
2013-04-30 17:45:00,84.7,53.0,29.68,West,267,10.0,-999.0,34,-99.99,,,0.00,weatherlink.com 1.10,2013-04-30 22:45:00,
2013-04-30 18:00:00,84.8,53.0,29.69,WSW,243,9.0,-999.0,34,-99.99,,,0.00,weatherlink.com 1.10,2013-04-30 23:00:00,
2013-04-30 18:15:00,83.9,54.0,29.69,WSW,254,6.0,-999.0,36,-99.99,,,0.00,weatherlink.com 1.10,2013-04-30 23:15:00,
2013-04-30 18:30:00,83.5,55.0,29.70,WSW,254,4.0,-999.0,37,-99.99,,,0.00,weatherlink.com 1.10,2013-04-30 23:30:00,
2013-04-30 18:45:00,82.6,55.0,29.70,NW,306,7.0,-999.0,39,-99.99,,,0.00,weatherlink.com 1.10,2013-04-30 23:45:00,
2013-04-30 19:00:00,81.1,55.0,29.70,West,263,4.0,-999.0,41,-99.99,,,0.00,weatherlink.com 1.10,2013-05-01 00:00:00,
2013-04-30 19:15:00,80.5,55.0,29.71,WSW,257,5.0,-999.0,41,-99.99,,,0.00,weatherlink.com 1.10,2013-05-01 00:15:00,
2013-04-30 19:30:00,80.4,55.0,29.72,WSW,252,1.0,-999.0,41,-99.99,,,0.00,weatherlink.com 1.10,2013-05-01 00:30:00,
2013-04-30 19:45:00,79.7,55.0,29.73,WSW,252,1.0,-999.0,43,-99.99,,,0.00,weatherlink.com 1.10,2013-05-01 00:45:00,
2013-04-30 20:00:00,79.1,55.0,29.73,WSW,252,1.0,-999.0,44,-99.99,,,0.00,weatherlink.com 1.10,2013-05-01 01:00:00,
2013-04-30 20:15:00,78.7,56.0,29.73,WSW,258,1.0,-999.0,45,-99.99,,,0.00,weatherlink.com 1.10,2013-05-01 01:15:00,
2013-04-30 20:30:00,78.9,56.0,29.74,West,271,3.0,-999.0,45,-99.99,,,0.00,weatherlink.com 1.10,2013-05-01 01:30:00,
2013-04-30 20:45:00,77.1,56.0,29.75,WSW,256,1.0,-999.0,48,-99.99,,,0.00,weatherlink.com 1.10,2013-05-01 01:45:00,
2013-04-30 21:00:00,77.3,56.0,29.75,WSW,250,0.0,-999.0,48,-99.99,,,0.00,weatherlink.com 1.10,2013-05-01 02:00:00,
2013-04-30 21:15:00,76.2,56.0,29.76,SW,236,0.0,-999.0,50,-99.99,,,0.00,weatherlink.com 1.10,2013-05-01 02:15:00,
2013-04-30 21:30:00,75.7,56.0,29.76,SW,222,0.0,-999.0,51,-99.99,,,0.00,weatherlink.com 1.10,2013-05-01 02:30:00,
2013-04-30 21:45:00,75.4,56.0,29.77,SW,226,0.0,-999.0,51,-99.99,,,0.00,weatherlink.com 1.10,2013-05-01 02:45:00,
2013-04-30 22:00:00,74.1,56.0,29.77,SW,236,1.0,-999.0,54,-99.99,,,0.00,weatherlink.com 1.10,2013-05-01 03:00:00,
2013-04-30 22:15:00,73.0,56.0,29.78,SW,236,3.0,-999.0,55,-99.99,,,0.00,weatherlink.com 1.10,2013-05-01 03:15:00,
2013-04-30 22:30:00,73.1,55.0,29.79,WSW,246,0.0,-999.0,54,-99.99,,,0.00,weatherlink.com 1.10,2013-05-01 03:30:00,
2013-04-30 22:45:00,72.1,56.0,29.81,West,271,4.0,-999.0,58,-99.99,,,0.00,weatherlink.com 1.10,2013-05-01 03:45:00,
2013-04-30 23:00:00,68.6,53.0,29.82,NNW,347,1.0,-999.0,58,-99.99,,,0.00,weatherlink.com 1.10,2013-05-01 04:00:00,
2013-04-30 23:16:00,67.9,51.0,29.83,NNE,13,2.0,-999.0,55,-99.99,,,0.00,weatherlink.com 1.10,2013-05-01 04:16:00,
2013-04-30 23:31:00,66.9,50.0,29.85,NNE,26,8.0,-999.0,54,-99.99,,,0.00,weatherlink.com 1.10,2013-05-01 04:31:00,
2013-04-30 23:46:00,66.1,49.0,29.86,NW,309,2.0,-999.0,54,-99.99,,,0.00,weatherlink.com 1.10,2013-05-01 04:46:00,